createdAt,value
2022-08-30T00:00:14.354Z,0.00
2022-08-30T00:01:14.535Z,0.00
2022-08-30T00:02:14.410Z,0.00
2022-08-30T00:03:14.577Z,0.00
2022-08-30T00:04:14.323Z,0.00
2022-08-30T00:05:14.302Z,0.00
2022-08-30T00:06:14.293Z,0.00
2022-08-30T00:07:14.283Z,0.00
2022-08-30T00:08:14.283Z,0.00
2022-08-30T00:09:14.285Z,0.00
2022-08-30T00:10:14.254Z,0.00
2022-08-30T00:11:14.235Z,0.00
2022-08-30T00:12:14.238Z,0.00
2022-08-30T00:13:14.215Z,0.00
2022-08-30T00:14:14.216Z,0.00
2022-08-30T00:15:14.245Z,0.00
2022-08-30T00:16:14.233Z,0.00
2022-08-30T00:17:14.185Z,0.00
2022-08-30T00:18:14.176Z,0.00
2022-08-30T00:19:14.160Z,0.00
2022-08-30T00:20:14.158Z,0.00
2022-08-30T00:21:14.168Z,0.00
2022-08-30T00:22:14.127Z,0.00
2022-08-30T00:23:14.140Z,0.00
2022-08-30T00:24:14.118Z,0.00
2022-08-30T00:25:14.096Z,0.00
2022-08-30T00:26:14.090Z,0.00
2022-08-30T00:27:14.103Z,0.00
2022-08-30T00:28:14.068Z,0.00
2022-08-30T00:29:14.049Z,0.00
2022-08-30T00:30:14.058Z,0.00
2022-08-30T00:31:15.284Z,0.00
2022-08-30T00:32:14.031Z,0.00
2022-08-30T00:33:14.120Z,0.00
2022-08-30T00:34:14.003Z,0.00
2022-08-30T00:35:13.991Z,0.00
2022-08-30T00:36:13.988Z,0.00
2022-08-30T00:37:13.970Z,0.00
2022-08-30T00:38:13.962Z,0.00
2022-08-30T00:39:13.980Z,0.00
2022-08-30T00:40:13.968Z,0.00
2022-08-30T00:41:13.932Z,0.00
2022-08-30T00:42:13.924Z,0.00
2022-08-30T00:43:15.878Z,0.00
2022-08-30T00:44:13.913Z,0.00
2022-08-30T00:45:13.913Z,0.00
2022-08-30T00:46:13.917Z,0.00
2022-08-30T00:47:13.875Z,0.00
2022-08-30T00:48:13.863Z,0.00
2022-08-30T00:49:13.862Z,0.00
2022-08-30T00:50:13.844Z,0.00
2022-08-30T00:51:13.863Z,0.00
2022-08-30T00:52:13.825Z,0.00
2022-08-30T00:53:13.927Z,0.00
2022-08-30T00:54:13.806Z,0.00
2022-08-30T00:55:13.786Z,0.00
2022-08-30T00:56:13.785Z,0.00
2022-08-30T00:57:13.796Z,0.00
2022-08-30T00:58:13.766Z,0.00
2022-08-30T00:59:13.749Z,0.00
2022-08-30T01:00:13.744Z,0.00
2022-08-30T01:01:13.801Z,0.00
2022-08-30T01:02:13.778Z,0.00
2022-08-30T01:03:13.761Z,0.00
2022-08-30T01:04:13.700Z,0.00
2022-08-30T01:05:15.951Z,0.00
2022-08-30T01:06:13.680Z,0.00
2022-08-30T01:07:13.666Z,0.00
2022-08-30T01:08:13.719Z,0.00
2022-08-30T01:09:13.669Z,0.00
2022-08-30T01:10:13.647Z,0.00
2022-08-30T01:11:13.627Z,0.00
2022-08-30T01:12:13.619Z,0.00
2022-08-30T01:13:13.600Z,0.00
2022-08-30T01:14:13.600Z,0.00
2022-08-30T01:15:13.611Z,0.00
2022-08-30T01:16:13.621Z,0.00
2022-08-30T01:17:13.562Z,0.00
2022-08-30T01:18:13.559Z,0.00
2022-08-30T01:19:13.552Z,0.00
2022-08-30T01:20:13.540Z,0.00
2022-08-30T01:21:13.541Z,0.00
2022-08-30T01:22:13.512Z,0.00
2022-08-30T01:23:13.503Z,0.00
2022-08-30T01:24:13.493Z,0.00
2022-08-30T01:25:13.483Z,0.00
2022-08-30T01:26:13.474Z,0.00
2022-08-30T01:27:13.483Z,0.00
2022-08-30T01:28:13.460Z,0.00
2022-08-30T01:29:13.435Z,0.00
2022-08-30T01:30:13.456Z,0.00
2022-08-30T01:31:13.485Z,0.00
2022-08-30T01:32:13.413Z,0.00
2022-08-30T01:33:13.466Z,0.00
2022-08-30T01:34:13.393Z,0.00
2022-08-30T01:35:13.382Z,0.00
2022-08-30T01:36:13.367Z,0.00
2022-08-30T01:37:13.362Z,0.00
2022-08-30T01:38:13.336Z,0.00
2022-08-30T01:39:13.375Z,0.00
2022-08-30T01:40:13.361Z,0.00
2022-08-30T01:41:13.316Z,0.00
2022-08-30T01:42:13.306Z,0.00
2022-08-30T01:43:13.384Z,0.00
2022-08-30T01:44:13.286Z,0.00
2022-08-30T01:45:13.300Z,0.00
2022-08-30T01:46:13.288Z,0.00
2022-08-30T01:47:13.257Z,0.00
2022-08-30T01:48:13.239Z,0.00
2022-08-30T01:49:13.228Z,0.00
2022-08-30T01:50:13.221Z,0.00
2022-08-30T01:51:13.230Z,0.00
2022-08-30T01:52:13.203Z,0.00
2022-08-30T01:53:13.499Z,0.00
2022-08-30T01:54:13.179Z,0.00
2022-08-30T01:55:13.168Z,0.00
2022-08-30T01:56:13.158Z,0.00
2022-08-30T01:57:13.170Z,0.00
2022-08-30T01:58:13.138Z,0.00
2022-08-30T01:59:13.130Z,0.00
2022-08-30T02:00:13.120Z,0.00
2022-08-30T02:01:13.133Z,0.00
2022-08-30T02:02:13.100Z,0.00
2022-08-30T02:03:13.184Z,0.00
2022-08-30T02:04:13.120Z,0.00
2022-08-30T02:05:13.072Z,0.00
2022-08-30T02:06:13.052Z,0.00
2022-08-30T02:07:13.050Z,0.00
2022-08-30T02:08:13.040Z,0.00
2022-08-30T02:09:13.052Z,0.00
2022-08-30T02:10:13.012Z,0.00
2022-08-30T02:11:13.003Z,0.00
2022-08-30T02:12:12.995Z,0.00
2022-08-30T02:13:13.041Z,0.00
2022-08-30T02:14:12.980Z,0.00
2022-08-30T02:15:12.984Z,0.00
2022-08-30T02:16:12.986Z,0.00
2022-08-30T02:17:12.944Z,0.00
2022-08-30T02:18:12.923Z,0.00
2022-08-30T02:19:12.922Z,0.00
2022-08-30T02:20:12.906Z,0.00
2022-08-30T02:21:12.927Z,0.00
2022-08-30T02:22:12.885Z,0.00
2022-08-30T02:23:13.022Z,0.00
2022-08-30T02:24:12.870Z,0.00
2022-08-30T02:25:20.774Z,0.00
2022-08-30T02:26:13.864Z,0.00
2022-08-30T02:27:12.846Z,0.00
2022-08-30T02:28:12.835Z,0.00
2022-08-30T02:29:12.814Z,0.00
2022-08-30T02:30:12.806Z,0.00
2022-08-30T02:31:12.862Z,0.00
2022-08-30T02:32:12.805Z,0.00
2022-08-30T02:33:12.779Z,0.00
2022-08-30T02:34:12.764Z,0.00
2022-08-30T02:35:12.757Z,0.00
2022-08-30T02:36:12.738Z,0.00
2022-08-30T02:37:12.735Z,0.00
2022-08-30T02:38:12.749Z,0.00
2022-08-30T02:39:12.719Z,0.00
2022-08-30T02:40:12.749Z,0.00
2022-08-30T02:41:12.698Z,0.00
2022-08-30T02:42:12.679Z,0.00
2022-08-30T02:43:12.723Z,0.00
2022-08-30T02:44:12.690Z,0.00
2022-08-30T02:45:12.653Z,0.00
2022-08-30T02:46:12.753Z,0.00
2022-08-30T02:47:12.628Z,0.00
2022-08-30T02:48:12.611Z,0.00
2022-08-30T02:49:32.750Z,0.00
2022-08-30T02:50:13.620Z,0.00
2022-08-30T02:51:12.594Z,0.00
2022-08-30T02:52:12.571Z,0.00
2022-08-30T02:53:14.066Z,0.00
2022-08-30T02:54:12.559Z,0.00
2022-08-30T02:55:12.551Z,0.00
2022-08-30T02:56:12.553Z,0.00
2022-08-30T02:57:19.989Z,0.00
2022-08-30T02:58:13.512Z,0.00
2022-08-30T02:59:12.511Z,0.00
2022-08-30T03:00:12.495Z,0.00
2022-08-30T03:01:12.536Z,0.00
2022-08-30T03:02:12.503Z,0.00
2022-08-30T03:03:12.589Z,0.00
2022-08-30T03:04:12.454Z,0.00
2022-08-30T03:05:12.444Z,0.00
2022-08-30T03:06:12.439Z,0.00
2022-08-30T03:07:12.424Z,0.00
2022-08-30T03:08:12.435Z,0.00
2022-08-30T03:09:12.416Z,0.00
2022-08-30T03:10:12.406Z,0.00
2022-08-30T03:11:12.387Z,0.00
2022-08-30T03:12:12.375Z,0.00
2022-08-30T03:13:12.407Z,0.00
2022-08-30T03:14:12.382Z,0.00
2022-08-30T03:15:12.351Z,0.00
2022-08-30T03:16:12.370Z,0.00
2022-08-30T03:17:15.469Z,0.00
2022-08-30T03:18:12.318Z,0.00
2022-08-30T03:19:12.308Z,0.00
2022-08-30T03:20:12.332Z,0.00
2022-08-30T03:21:12.287Z,0.00
2022-08-30T03:22:12.268Z,0.00
2022-08-30T03:23:12.263Z,0.00
2022-08-30T03:24:13.248Z,0.00
2022-08-30T03:25:12.246Z,0.00
2022-08-30T03:26:12.248Z,0.00
2022-08-30T03:27:12.227Z,0.00
2022-08-30T03:28:12.220Z,0.00
2022-08-30T03:29:12.208Z,0.00
2022-08-30T03:30:12.193Z,0.00
2022-08-30T03:31:12.150Z,1.00
2022-08-30T03:32:12.181Z,1.00
2022-08-30T03:33:12.119Z,1.00
2022-08-30T03:34:12.099Z,1.00
2022-08-30T03:35:12.090Z,1.00
2022-08-30T03:36:12.122Z,1.00
2022-08-30T03:37:12.071Z,1.00
2022-08-30T03:38:12.102Z,2.00
2022-08-30T03:39:12.518Z,2.00
2022-08-30T03:40:12.080Z,3.00
2022-08-30T03:41:12.041Z,3.00
2022-08-30T03:42:12.015Z,3.00
2022-08-30T03:43:12.012Z,4.00
2022-08-30T03:44:12.020Z,4.00
2022-08-30T03:45:11.990Z,4.00
2022-08-30T03:46:12.031Z,4.00
2022-08-30T03:47:11.967Z,5.00
2022-08-30T03:48:11.952Z,6.00
2022-08-30T03:49:11.954Z,5.00
2022-08-30T03:50:11.970Z,6.00
2022-08-30T03:51:11.974Z,7.00
2022-08-30T03:52:11.912Z,7.00
2022-08-30T03:53:11.914Z,8.00
2022-08-30T03:54:11.902Z,8.00
2022-08-30T03:55:11.888Z,9.00
2022-08-30T03:56:11.895Z,9.00
2022-08-30T03:57:20.112Z,9.00
2022-08-30T03:58:12.856Z,10.00
2022-08-30T03:59:12.852Z,11.00
2022-08-30T04:00:11.835Z,11.00
2022-08-30T04:01:11.879Z,12.00
2022-08-30T04:02:11.916Z,13.00
2022-08-30T04:03:11.814Z,13.00
2022-08-30T04:04:11.797Z,14.00
2022-08-30T04:05:11.786Z,14.00
2022-08-30T04:06:11.805Z,14.00
2022-08-30T04:07:11.768Z,15.00
2022-08-30T04:08:11.787Z,16.00
2022-08-30T04:09:11.747Z,16.00
2022-08-30T04:10:11.728Z,17.00
2022-08-30T04:11:11.728Z,17.00
2022-08-30T04:12:11.708Z,17.00
2022-08-30T04:13:11.707Z,19.00
2022-08-30T04:14:11.715Z,20.00
2022-08-30T04:15:11.685Z,24.00
2022-08-30T04:16:11.748Z,23.00
2022-08-30T04:17:11.668Z,22.00
2022-08-30T04:18:11.650Z,23.00
2022-08-30T04:19:11.648Z,23.00
2022-08-30T04:20:11.656Z,25.00
2022-08-30T04:21:14.104Z,25.00
2022-08-30T04:22:11.622Z,27.00
2022-08-30T04:23:11.609Z,27.00
2022-08-30T04:24:11.597Z,28.00
2022-08-30T04:25:15.256Z,29.00
2022-08-30T04:26:11.598Z,30.00
2022-08-30T04:27:11.562Z,30.00
2022-08-30T04:28:11.554Z,31.00
2022-08-30T04:29:11.549Z,33.00
2022-08-30T04:30:11.531Z,33.00
2022-08-30T04:31:11.869Z,34.00
2022-08-30T04:32:11.539Z,35.00
2022-08-30T04:33:11.521Z,36.00
2022-08-30T04:34:11.511Z,37.00
2022-08-30T04:35:11.490Z,37.00
2022-08-30T04:36:11.490Z,38.00
2022-08-30T04:37:11.474Z,39.00
2022-08-30T04:38:11.495Z,39.00
2022-08-30T04:39:11.453Z,41.00
2022-08-30T04:40:11.485Z,42.00
2022-08-30T04:41:11.423Z,42.00
2022-08-30T04:42:11.422Z,43.00
2022-08-30T04:43:11.403Z,44.00
2022-08-30T04:44:15.894Z,45.00
2022-08-30T04:45:12.382Z,46.00
2022-08-30T04:46:11.412Z,47.00
2022-08-30T04:47:11.366Z,48.00
2022-08-30T04:48:11.356Z,48.00
2022-08-30T04:49:11.345Z,50.00
2022-08-30T04:50:11.354Z,50.00
2022-08-30T04:51:11.325Z,51.00
2022-08-30T04:52:11.307Z,52.00
2022-08-30T04:53:11.304Z,53.00
2022-08-30T04:54:11.287Z,54.00
2022-08-30T04:55:11.287Z,55.00
2022-08-30T04:56:11.448Z,56.00
2022-08-30T04:57:11.265Z,57.00
2022-08-30T04:58:11.248Z,57.00
2022-08-30T04:59:11.244Z,60.00
2022-08-30T05:00:11.237Z,61.00
2022-08-30T05:01:11.284Z,64.00
2022-08-30T05:02:14.707Z,65.00
2022-08-30T05:03:11.207Z,64.00
2022-08-30T05:04:11.188Z,67.00
2022-08-30T05:05:11.186Z,73.00
2022-08-30T05:06:11.170Z,80.00
2022-08-30T05:07:11.168Z,90.00
2022-08-30T05:08:11.168Z,85.00
2022-08-30T05:09:11.146Z,78.00
2022-08-30T05:10:11.744Z,89.00
2022-08-30T05:11:11.158Z,119.00
2022-08-30T05:12:11.112Z,171.00
2022-08-30T05:13:11.112Z,238.00
2022-08-30T05:14:11.126Z,298.00
2022-08-30T05:15:11.080Z,382.00
2022-08-30T05:16:11.135Z,397.00
2022-08-30T05:17:11.070Z,413.00
2022-08-30T05:18:14.049Z,397.00
2022-08-30T05:19:11.050Z,457.00
2022-08-30T05:20:11.051Z,466.00
2022-08-30T05:21:11.020Z,222.00
2022-08-30T05:22:11.012Z,197.00
2022-08-30T05:23:11.002Z,195.00
2022-08-30T05:24:10.981Z,266.00
2022-08-30T05:25:10.984Z,337.00
2022-08-30T05:26:10.992Z,361.00
2022-08-30T05:27:10.962Z,395.00
2022-08-30T05:28:10.945Z,407.00
2022-08-30T05:29:10.940Z,374.00
2022-08-30T05:30:10.934Z,316.00
2022-08-30T05:31:13.968Z,305.00
2022-08-30T05:32:10.931Z,365.00
2022-08-30T05:33:10.912Z,410.00
2022-08-30T05:34:10.884Z,412.00
2022-08-30T05:35:10.878Z,413.00
2022-08-30T05:36:10.868Z,402.00
2022-08-30T05:37:10.864Z,386.00
2022-08-30T05:38:10.868Z,336.00
2022-08-30T05:39:10.836Z,280.00
2022-08-30T05:40:11.115Z,262.00
2022-08-30T05:41:11.197Z,260.00
2022-08-30T05:42:10.816Z,260.00
2022-08-30T05:43:11.826Z,270.00
2022-08-30T05:44:10.777Z,281.00
2022-08-30T05:45:10.776Z,293.00
2022-08-30T05:46:10.823Z,303.00
2022-08-30T05:47:10.761Z,311.00
2022-08-30T05:48:13.004Z,320.00
2022-08-30T05:49:10.772Z,325.00
2022-08-30T05:50:10.721Z,331.00
2022-08-30T05:51:10.709Z,338.00
2022-08-30T05:52:10.701Z,344.00
2022-08-30T05:53:10.700Z,347.00
2022-08-30T05:54:10.680Z,353.00
2022-08-30T05:55:10.690Z,360.00
2022-08-30T05:56:10.663Z,368.00
2022-08-30T05:57:10.651Z,373.00
2022-08-30T05:58:10.640Z,377.00
2022-08-30T05:59:10.623Z,383.00
2022-08-30T06:00:10.630Z,390.00
2022-08-30T06:01:10.791Z,389.00
2022-08-30T06:02:10.710Z,396.00
2022-08-30T06:03:10.634Z,406.00
2022-08-30T06:04:10.583Z,420.00
2022-08-30T06:05:10.562Z,436.00
2022-08-30T06:06:10.554Z,449.00
2022-08-30T06:07:12.975Z,461.00
2022-08-30T06:08:10.541Z,472.00
2022-08-30T06:09:10.524Z,481.00
2022-08-30T06:10:10.523Z,491.00
2022-08-30T06:11:10.494Z,498.00
2022-08-30T06:12:10.495Z,502.00
2022-08-30T06:13:10.513Z,503.00
2022-08-30T06:14:10.485Z,505.00
2022-08-30T06:15:10.465Z,505.00
2022-08-30T06:16:10.496Z,507.00
2022-08-30T06:17:10.449Z,509.00
2022-08-30T06:18:10.436Z,508.00
2022-08-30T06:19:10.467Z,507.00
2022-08-30T06:20:10.416Z,503.00
2022-08-30T06:21:14.992Z,502.00
2022-08-30T06:22:10.395Z,501.00
2022-08-30T06:23:10.384Z,499.00
2022-08-30T06:24:10.377Z,498.00
2022-08-30T06:25:10.386Z,499.00
2022-08-30T06:26:10.357Z,500.00
2022-08-30T06:27:10.348Z,502.00
2022-08-30T06:28:10.405Z,503.00
2022-08-30T06:29:10.318Z,503.00
2022-08-30T06:30:10.316Z,504.00
2022-08-30T06:31:10.375Z,505.00
2022-08-30T06:32:10.297Z,504.00
2022-08-30T06:33:10.279Z,506.00
2022-08-30T06:34:10.278Z,508.00
2022-08-30T06:35:10.251Z,509.00
2022-08-30T06:36:10.251Z,512.00
2022-08-30T06:37:10.281Z,513.00
2022-08-30T06:38:10.232Z,517.00
2022-08-30T06:39:10.221Z,520.00
2022-08-30T06:40:10.261Z,526.00
2022-08-30T06:41:10.202Z,530.00
2022-08-30T06:42:10.192Z,535.00
2022-08-30T06:43:10.204Z,540.00
2022-08-30T06:44:10.162Z,546.00
2022-08-30T06:45:10.679Z,549.00
2022-08-30T06:46:10.215Z,554.00
2022-08-30T06:47:10.130Z,557.00
2022-08-30T06:48:10.123Z,559.00
2022-08-30T06:49:10.144Z,562.00
2022-08-30T06:50:11.137Z,565.00
2022-08-30T06:51:10.085Z,567.00
2022-08-30T06:52:10.082Z,570.00
2022-08-30T06:53:10.065Z,574.00
2022-08-30T06:54:10.839Z,579.00
2022-08-30T06:55:10.073Z,583.00
2022-08-30T06:56:10.040Z,589.00
2022-08-30T06:57:10.025Z,594.00
2022-08-30T06:58:10.071Z,600.00
2022-08-30T06:59:10.006Z,606.00
2022-08-30T07:00:09.998Z,612.00
2022-08-30T07:01:10.019Z,619.00
2022-08-30T07:02:10.031Z,626.00
2022-08-30T07:03:10.033Z,633.00
2022-08-30T07:04:09.959Z,642.00
2022-08-30T07:05:09.940Z,650.00
2022-08-30T07:06:09.938Z,660.00
2022-08-30T07:07:09.949Z,668.00
2022-08-30T07:08:09.934Z,677.00
2022-08-30T07:09:09.901Z,686.00
2022-08-30T07:10:09.900Z,694.00
2022-08-30T07:11:09.883Z,703.00
2022-08-30T07:12:09.878Z,712.00
2022-08-30T07:13:09.950Z,719.00
2022-08-30T07:14:09.860Z,727.00
2022-08-30T07:15:09.839Z,734.00
2022-08-30T07:16:09.872Z,742.00
2022-08-30T07:17:09.822Z,749.00
2022-08-30T07:18:09.817Z,756.00
2022-08-30T07:19:09.835Z,763.00
2022-08-30T07:20:10.795Z,771.00
2022-08-30T07:21:09.785Z,781.00
2022-08-30T07:22:09.774Z,792.00
2022-08-30T07:23:09.855Z,803.00
2022-08-30T07:24:09.752Z,815.00
2022-08-30T07:25:09.784Z,826.00
2022-08-30T07:26:09.732Z,839.00
2022-08-30T07:27:09.715Z,853.00
2022-08-30T07:28:09.717Z,866.00
2022-08-30T07:29:09.698Z,879.00
2022-08-30T07:30:09.687Z,894.00
2022-08-30T07:31:09.710Z,909.00
2022-08-30T07:32:09.669Z,923.00
2022-08-30T07:33:09.693Z,932.00
2022-08-30T07:34:09.651Z,944.00
2022-08-30T07:35:09.649Z,957.00
2022-08-30T07:36:09.629Z,969.00
2022-08-30T07:37:09.637Z,980.00
2022-08-30T07:38:09.608Z,992.00
2022-08-30T07:39:09.589Z,1003.00
2022-08-30T07:40:09.624Z,1015.00
2022-08-30T07:41:09.579Z,1025.00
2022-08-30T07:42:09.571Z,1037.00
2022-08-30T07:43:09.605Z,1051.00
2022-08-30T07:44:09.553Z,1064.00
2022-08-30T07:45:09.539Z,1074.00
2022-08-30T07:46:09.570Z,1086.00
2022-08-30T07:47:09.511Z,1098.00
2022-08-30T07:48:09.503Z,1111.00
2022-08-30T07:49:10.989Z,1106.00
2022-08-30T07:50:09.484Z,1063.00
2022-08-30T07:51:09.471Z,1034.00
2022-08-30T07:52:09.465Z,1059.00
2022-08-30T07:53:11.260Z,1129.00
2022-08-30T07:54:09.447Z,1193.00
2022-08-30T07:55:09.456Z,1210.00
2022-08-30T07:56:09.418Z,1225.00
2022-08-30T07:57:09.405Z,1247.00
2022-08-30T07:58:09.398Z,1271.00
2022-08-30T07:59:09.386Z,1295.00
2022-08-30T08:00:09.377Z,1325.00
2022-08-30T08:01:09.473Z,1366.00
2022-08-30T08:02:09.384Z,1397.00
2022-08-30T08:03:09.349Z,1404.00
2022-08-30T08:04:09.339Z,1304.00
2022-08-30T08:05:10.990Z,1257.00
2022-08-30T08:06:09.318Z,1405.00
2022-08-30T08:07:09.332Z,1338.00
2022-08-30T08:08:09.389Z,1381.00
2022-08-30T08:09:09.279Z,1445.00
2022-08-30T08:10:09.271Z,1272.00
2022-08-30T08:11:09.260Z,956.00
2022-08-30T08:12:09.250Z,1000.00
2022-08-30T08:13:09.271Z,992.00
2022-08-30T08:14:09.283Z,992.00
2022-08-30T08:15:09.222Z,1233.00
2022-08-30T08:16:09.256Z,1435.00
2022-08-30T08:17:09.203Z,1379.00
2022-08-30T08:18:09.226Z,1260.00
2022-08-30T08:19:09.436Z,1077.00
2022-08-30T08:20:09.174Z,950.00
2022-08-30T08:21:09.153Z,867.00
2022-08-30T08:22:20.541Z,751.00
2022-08-30T08:23:10.133Z,721.00
2022-08-30T08:24:09.124Z,640.00
2022-08-30T08:25:09.138Z,467.00
2022-08-30T08:26:09.106Z,452.00
2022-08-30T08:27:09.096Z,494.00
2022-08-30T08:28:09.139Z,552.00
2022-08-30T08:29:09.074Z,564.00
2022-08-30T08:30:09.067Z,618.00
2022-08-30T08:31:09.149Z,565.00
2022-08-30T08:32:09.044Z,427.00
2022-08-30T08:33:09.037Z,464.00
2022-08-30T08:34:09.027Z,505.00
2022-08-30T08:35:09.010Z,474.00
2022-08-30T08:36:09.628Z,481.00
2022-08-30T08:37:09.018Z,490.00
2022-08-30T08:38:09.035Z,500.00
2022-08-30T08:39:08.971Z,522.00
2022-08-30T08:40:09.010Z,604.00
2022-08-30T08:41:08.958Z,543.00
2022-08-30T08:42:08.959Z,1440.00
2022-08-30T08:43:08.952Z,1340.00
2022-08-30T08:44:08.922Z,1284.00
2022-08-30T08:45:11.233Z,1380.00
2022-08-30T08:46:08.940Z,1312.00
2022-08-30T08:47:08.884Z,1375.00
2022-08-30T08:48:08.917Z,1368.00
2022-08-30T08:49:08.905Z,1249.00
2022-08-30T08:50:08.862Z,1328.00
2022-08-30T08:51:08.854Z,1426.00
2022-08-30T08:52:08.835Z,1433.00
2022-08-30T08:53:10.771Z,1439.00
2022-08-30T08:54:09.847Z,1445.00
2022-08-30T08:55:08.808Z,1450.00
2022-08-30T08:56:08.795Z,1455.00
2022-08-30T08:57:10.296Z,1463.00
2022-08-30T08:58:08.778Z,1460.00
2022-08-30T08:59:08.758Z,1446.00
2022-08-30T09:00:08.783Z,1404.00
2022-08-30T09:01:08.796Z,1340.00
2022-08-30T09:02:08.760Z,1330.00
2022-08-30T09:03:08.718Z,1327.00
2022-08-30T09:04:08.709Z,1341.00
2022-08-30T09:05:08.741Z,1353.00
2022-08-30T09:06:08.720Z,1370.00
2022-08-30T09:07:08.679Z,1399.00
2022-08-30T09:08:10.147Z,1421.00
2022-08-30T09:09:08.660Z,1421.00
2022-08-30T09:10:08.652Z,1401.00
2022-08-30T09:11:08.641Z,1387.00
2022-08-30T09:12:08.891Z,1356.00
2022-08-30T09:13:08.620Z,1287.00
2022-08-30T09:14:09.603Z,1258.00
2022-08-30T09:15:08.593Z,1284.00
2022-08-30T09:16:08.604Z,1295.00
2022-08-30T09:17:09.604Z,1312.00
2022-08-30T09:18:12.989Z,1342.00
2022-08-30T09:19:09.557Z,1369.00
2022-08-30T09:20:08.546Z,1401.00
2022-08-30T09:21:08.534Z,1423.00
2022-08-30T09:22:08.526Z,1433.00
2022-08-30T09:23:08.538Z,1441.00
2022-08-30T09:24:08.507Z,1451.00
2022-08-30T09:25:08.497Z,1461.00
2022-08-30T09:26:08.490Z,1462.00
2022-08-30T09:27:08.470Z,1436.00
2022-08-30T09:28:08.465Z,1396.00
2022-08-30T09:29:08.499Z,1392.00
2022-08-30T09:30:11.225Z,1386.00
2022-08-30T09:31:12.421Z,1367.00
2022-08-30T09:32:25.113Z,1319.00
2022-08-30T09:33:09.410Z,1283.00
2022-08-30T09:34:08.408Z,1253.00
2022-08-30T09:35:08.453Z,1272.00
2022-08-30T09:36:08.381Z,1330.00
2022-08-30T09:37:08.371Z,1302.00
2022-08-30T09:38:08.364Z,1289.00
2022-08-30T09:39:08.345Z,1295.00
2022-08-30T09:40:08.361Z,1384.00
2022-08-30T09:41:08.354Z,1459.00
2022-08-30T09:42:08.322Z,1475.00
2022-08-30T09:43:08.305Z,1472.00
2022-08-30T09:44:08.303Z,1473.00
2022-08-30T09:45:08.286Z,1456.00
2022-08-30T09:46:08.359Z,1397.00
2022-08-30T09:47:08.286Z,1345.00
2022-08-30T09:48:08.256Z,1378.00
2022-08-30T09:49:08.238Z,1383.00
2022-08-30T09:50:08.237Z,1333.00
2022-08-30T09:51:08.223Z,1329.00
2022-08-30T09:52:08.220Z,1360.00
2022-08-30T09:53:08.236Z,1368.00
2022-08-30T09:54:17.131Z,1401.00
2022-08-30T09:55:09.177Z,1444.00
2022-08-30T09:56:08.169Z,1424.00
2022-08-30T09:57:11.773Z,1342.00
2022-08-30T09:58:08.150Z,1299.00
2022-08-30T09:59:08.161Z,1383.00
2022-08-30T10:00:08.131Z,1384.00
2022-08-30T10:01:08.142Z,1390.00
2022-08-30T10:02:08.123Z,1435.00
2022-08-30T10:03:08.092Z,1432.00
2022-08-30T10:04:08.083Z,1384.00
2022-08-30T10:05:08.096Z,1368.00
2022-08-30T10:06:08.064Z,1358.00
2022-08-30T10:07:08.055Z,1355.00
2022-08-30T10:08:08.044Z,1387.00
2022-08-30T10:09:08.034Z,1389.00
2022-08-30T10:10:08.017Z,1382.00
2022-08-30T10:11:08.047Z,1373.00
2022-08-30T10:12:08.005Z,1364.00
2022-08-30T10:13:07.996Z,1335.00
2022-08-30T10:14:07.977Z,1283.00
2022-08-30T10:15:07.974Z,1253.00
2022-08-30T10:16:07.958Z,1259.00
2022-08-30T10:17:07.977Z,1247.00
2022-08-30T10:18:07.938Z,1237.00
2022-08-30T10:19:07.928Z,1256.00
2022-08-30T10:20:07.920Z,1288.00
2022-08-30T10:21:07.912Z,1333.00
2022-08-30T10:22:07.901Z,1360.00
2022-08-30T10:23:09.960Z,1358.00
2022-08-30T10:24:07.880Z,1314.00
2022-08-30T10:25:07.872Z,1239.00
2022-08-30T10:26:07.859Z,1170.00
2022-08-30T10:27:07.844Z,1191.00
2022-08-30T10:28:07.840Z,1247.00
2022-08-30T10:29:07.863Z,1237.00
2022-08-30T10:30:07.812Z,1254.00
2022-08-30T10:31:07.806Z,1317.00
2022-08-30T10:32:07.794Z,1278.00
2022-08-30T10:33:07.785Z,1259.00
2022-08-30T10:34:07.771Z,1228.00
2022-08-30T10:35:07.806Z,1210.00
2022-08-30T10:36:10.370Z,1217.00
2022-08-30T10:37:07.744Z,1260.00
2022-08-30T10:38:07.737Z,1265.00
2022-08-30T10:39:07.726Z,1245.00
2022-08-30T10:40:07.774Z,1237.00
2022-08-30T10:41:07.727Z,1236.00
2022-08-30T10:42:07.685Z,1240.00
2022-08-30T10:43:07.688Z,1190.00
2022-08-30T10:44:07.668Z,1148.00
2022-08-30T10:45:07.661Z,1203.00
2022-08-30T10:46:07.647Z,1225.00
2022-08-30T10:47:07.660Z,1343.00
2022-08-30T10:48:07.623Z,1336.00
2022-08-30T10:49:07.623Z,1324.00
2022-08-30T10:50:07.601Z,1363.00
2022-08-30T10:51:07.598Z,1402.00
2022-08-30T10:52:07.582Z,1416.00
2022-08-30T10:53:07.605Z,1420.00
2022-08-30T10:54:07.561Z,1488.00
2022-08-30T10:55:07.552Z,1562.00
2022-08-30T10:56:07.544Z,1560.00
2022-08-30T10:57:07.531Z,1560.00
2022-08-30T10:58:07.515Z,1510.00
2022-08-30T10:59:07.547Z,1902.00
2022-08-30T11:00:07.497Z,711.00
2022-08-30T11:01:07.510Z,640.00
2022-08-30T11:02:08.467Z,608.00
2022-08-30T11:03:07.480Z,582.00
2022-08-30T11:04:07.457Z,575.00
2022-08-30T11:05:08.478Z,554.00
2022-08-30T11:06:07.429Z,543.00
2022-08-30T11:07:10.003Z,536.00
2022-08-30T11:08:07.407Z,539.00
2022-08-30T11:09:07.406Z,548.00
2022-08-30T11:10:07.389Z,558.00
2022-08-30T11:11:07.409Z,627.00
2022-08-30T11:12:08.363Z,697.00
2022-08-30T11:13:07.361Z,654.00
2022-08-30T11:14:07.349Z,631.00
2022-08-30T11:15:07.341Z,623.00
2022-08-30T11:16:07.323Z,725.00
2022-08-30T11:17:07.344Z,946.00
2022-08-30T11:18:07.310Z,1161.00
2022-08-30T11:19:07.303Z,1293.00
2022-08-30T11:20:07.288Z,1277.00
2022-08-30T11:21:11.141Z,1203.00
2022-08-30T11:22:08.310Z,1127.00
2022-08-30T11:23:07.257Z,1701.00
2022-08-30T11:24:11.101Z,508.00
2022-08-30T11:25:10.095Z,471.00
2022-08-30T11:26:07.512Z,462.00
2022-08-30T11:27:07.225Z,457.00
2022-08-30T11:28:07.245Z,450.00
2022-08-30T11:29:07.196Z,442.00
2022-08-30T11:30:07.288Z,439.00
2022-08-30T11:31:07.178Z,438.00
2022-08-30T11:32:07.165Z,439.00
2022-08-30T11:33:09.585Z,448.00
2022-08-30T11:34:07.178Z,464.00
2022-08-30T11:35:07.139Z,484.00
2022-08-30T11:36:07.122Z,509.00
2022-08-30T11:37:09.845Z,534.00
2022-08-30T11:38:07.101Z,558.00
2022-08-30T11:39:07.089Z,580.00
2022-08-30T11:40:07.181Z,616.00
2022-08-30T11:41:09.464Z,1329.00
2022-08-30T11:42:07.060Z,1334.00
2022-08-30T11:43:07.052Z,2251.00
2022-08-30T11:44:07.033Z,579.00
2022-08-30T11:45:07.031Z,488.00
2022-08-30T11:46:10.357Z,476.00
2022-08-30T11:47:08.016Z,472.00
2022-08-30T11:48:06.995Z,471.00
2022-08-30T11:49:06.984Z,473.00
2022-08-30T11:50:09.836Z,475.00
2022-08-30T11:51:07.994Z,476.00
2022-08-30T11:52:27.253Z,477.00
2022-08-30T11:53:07.967Z,481.00
2022-08-30T11:54:06.927Z,485.00
2022-08-30T11:55:07.071Z,493.00
2022-08-30T11:56:06.918Z,502.00
2022-08-30T11:57:06.928Z,514.00
2022-08-30T11:58:06.888Z,528.00
2022-08-30T11:59:06.887Z,562.00
2022-08-30T12:00:06.961Z,696.00
2022-08-30T12:01:09.967Z,911.00
2022-08-30T12:02:08.026Z,1048.00
2022-08-30T12:03:06.972Z,1152.00
2022-08-30T12:04:06.829Z,1221.00
2022-08-30T12:05:06.845Z,1240.00
2022-08-30T12:06:06.809Z,1295.00
2022-08-30T12:07:06.801Z,1355.00
2022-08-30T12:08:06.821Z,1428.00
2022-08-30T12:09:08.294Z,1473.00
2022-08-30T12:10:06.773Z,1481.00
2022-08-30T12:11:06.756Z,1482.00
2022-08-30T12:12:06.743Z,1410.00
2022-08-30T12:13:06.735Z,1217.00
2022-08-30T12:14:09.299Z,1156.00
2022-08-30T12:15:06.721Z,1343.00
2022-08-30T12:16:06.742Z,1394.00
2022-08-30T12:17:06.694Z,1409.00
2022-08-30T12:18:06.684Z,1480.00
2022-08-30T12:19:07.707Z,1511.00
2022-08-30T12:20:06.677Z,1530.00
2022-08-30T12:21:07.854Z,1388.00
2022-08-30T12:22:06.637Z,1081.00
2022-08-30T12:23:06.636Z,879.00
2022-08-30T12:24:06.621Z,933.00
2022-08-30T12:25:06.651Z,1066.00
2022-08-30T12:26:06.601Z,1030.00
2022-08-30T12:27:06.590Z,806.00
2022-08-30T12:28:06.581Z,594.00
2022-08-30T12:29:06.571Z,548.00
2022-08-30T12:30:06.560Z,520.00
2022-08-30T12:31:06.578Z,502.00
2022-08-30T12:32:06.595Z,495.00
2022-08-30T12:33:06.532Z,512.00
2022-08-30T12:34:06.511Z,657.00
2022-08-30T12:35:06.512Z,712.00
2022-08-30T12:36:06.494Z,491.00
2022-08-30T12:37:06.514Z,433.00
2022-08-30T12:38:06.476Z,407.00
2022-08-30T12:39:06.465Z,397.00